Lake Charles/Chennault AFB, Louisiana
Current Conditions -  °F | °C
As of 7:50 AM on Thursday 30 Oct 2014 (Local Time) from KCWF Reporting Station
Clear Clear  
Wind Chill: 52°   Ceiling: Unl
Heat Index: 52°   Visibility: 10mi
Dew Point: 46°   Wind: 3mph
Humidity: 82%   Direction: NA
Pressure: 30.14"   Gusts: NA
Location:  30.22°N, 93.15°W
Report Text: KCWF 301250Z COR VRB03KT 10SM SKC 11/08 A3014
Loading
Personal Weather Stations






























Interactive Weather Map
Tropical Storm Tracking
New forecast layout! Learn more

10-Day Weather Forecast

Advertisements
Track Severe Weather on mobile